createdAt,value
2019-04-06T00:01:10.296Z,40.67
2019-04-06T00:03:39.336Z,52.93
2019-04-06T00:06:08.997Z,70.53
2019-04-06T00:08:38.002Z,64.23
2019-04-06T00:11:07.218Z,59.33
2019-04-06T00:13:36.162Z,46.03
2019-04-06T00:16:07.337Z,42.27
2019-04-06T00:18:36.407Z,38.13
2019-04-06T00:21:06.207Z,35.80
2019-04-06T00:23:35.790Z,36.10
2019-04-06T00:26:05.519Z,57.80
2019-04-06T00:28:36.360Z,71.80
2019-04-06T00:31:17.248Z,62.70
2019-04-06T00:33:47.184Z,107.80
2019-04-06T00:36:16.994Z,138.17
2019-04-06T00:38:47.740Z,146.23
2019-04-06T00:41:16.873Z,126.13
2019-04-06T00:43:46.568Z,71.93
2019-04-06T00:46:16.302Z,70.90
2019-04-06T00:48:46.076Z,56.37
2019-04-06T00:51:15.296Z,76.27
2019-04-06T00:53:44.460Z,71.03
2019-04-06T00:56:13.490Z,82.80
2019-04-06T00:58:42.538Z,96.67
2019-04-06T01:01:11.570Z,87.00
2019-04-06T01:03:40.638Z,60.70
2019-04-06T01:06:10.311Z,53.47
2019-04-06T01:08:40.304Z,51.37
2019-04-06T01:11:09.491Z,47.20
2019-04-06T01:13:38.549Z,42.53
2019-04-06T01:16:07.767Z,36.10
2019-04-06T01:18:39.519Z,33.47
2019-04-06T01:21:11.220Z,28.03
2019-04-06T01:23:40.481Z,28.60
2019-04-06T01:26:09.601Z,28.57
2019-04-06T01:28:38.826Z,27.13
2019-04-06T01:31:07.791Z,31.03
2019-04-06T01:33:39.110Z,37.63
2019-04-06T01:36:08.178Z,38.77
2019-04-06T01:38:38.601Z,33.93
2019-04-06T01:41:07.809Z,30.03
2019-04-06T01:43:37.420Z,30.43
2019-04-06T01:46:06.419Z,25.83
2019-04-06T01:48:35.452Z,24.63
2019-04-06T01:51:04.606Z,23.93
2019-04-06T01:53:33.567Z,23.17
2019-04-06T01:56:03.060Z,23.10
2019-04-06T01:58:31.988Z,40.80
2019-04-06T02:01:18.334Z,23.37
2019-04-06T02:03:47.454Z,20.43
2019-04-06T02:06:16.605Z,19.70
2019-04-06T02:08:45.930Z,20.33
2019-04-06T02:11:14.897Z,19.43
2019-04-06T02:13:43.995Z,18.93
2019-04-06T02:16:12.966Z,19.53
2019-04-06T02:18:42.053Z,18.80
2019-04-06T02:21:10.995Z,19.07
2019-04-06T02:23:40.107Z,18.67
2019-04-06T02:26:09.346Z,19.10
2019-04-06T02:28:38.786Z,18.83
2019-04-06T02:31:17.395Z,18.13
2019-04-06T02:33:57.102Z,18.13
2019-04-06T02:36:35.626Z,18.90
2019-04-06T02:39:27.698Z,18.97
2019-04-06T02:42:05.287Z,20.50
2019-04-06T02:44:34.337Z,19.30
2019-04-06T02:47:04.017Z,18.37
2019-04-06T02:49:33.005Z,19.50
2019-04-06T02:52:01.927Z,19.33
2019-04-06T02:54:31.166Z,18.63
2019-04-06T02:57:00.306Z,19.30
2019-04-06T02:59:30.541Z,18.03
2019-04-06T03:01:59.812Z,19.10
2019-04-06T03:04:28.803Z,19.37
2019-04-06T03:06:57.798Z,17.80
2019-04-06T03:09:27.163Z,18.37
2019-04-06T03:11:59.225Z,18.90
2019-04-06T03:14:28.399Z,17.70
2019-04-06T03:16:57.369Z,18.93
2019-04-06T03:19:26.329Z,18.93
2019-04-06T03:21:55.233Z,18.73
2019-04-06T03:24:24.158Z,18.70
2019-04-06T03:27:02.046Z,18.53
2019-04-06T03:29:25.044Z,18.83
2019-04-06T03:31:54.151Z,19.00
2019-04-06T03:34:23.472Z,18.37
2019-04-06T03:36:52.570Z,18.87
2019-04-06T03:39:22.499Z,17.67
2019-04-06T03:41:51.561Z,19.97
2019-04-06T03:44:20.674Z,19.67
2019-04-06T03:46:49.656Z,18.17
2019-04-06T03:49:18.997Z,18.70
2019-04-06T03:51:48.010Z,17.97
2019-04-06T03:54:17.232Z,19.90
2019-04-06T03:56:46.114Z,18.97
2019-04-06T03:59:15.267Z,18.67
2019-04-06T04:01:44.680Z,19.07
2019-04-06T04:04:13.607Z,18.40
2019-04-06T04:06:42.597Z,72.07
2019-04-06T04:09:11.727Z,30.60
2019-04-06T04:11:40.713Z,22.00
2019-04-06T04:14:09.997Z,19.43
2019-04-06T04:16:39.655Z,20.07
2019-04-06T04:19:09.058Z,18.73
2019-04-06T04:21:38.569Z,18.63
2019-04-06T04:24:07.563Z,18.70
2019-04-06T04:26:36.650Z,18.63
2019-04-06T04:29:06.197Z,19.07
2019-04-06T04:31:35.361Z,17.80
2019-04-06T04:34:04.454Z,18.80
2019-04-06T04:36:33.487Z,19.03
2019-04-06T04:39:02.535Z,18.10
2019-04-06T04:41:31.708Z,19.00
2019-04-06T04:44:00.929Z,18.70
2019-04-06T04:46:29.969Z,18.00
2019-04-06T04:48:59.089Z,18.37
2019-04-06T04:51:28.146Z,18.33
2019-04-06T04:53:58.631Z,18.07
2019-04-06T04:56:27.904Z,18.27
2019-04-06T04:58:56.852Z,18.90
2019-04-06T05:01:26.178Z,18.63
2019-04-06T05:03:55.182Z,18.63
2019-04-06T05:06:24.184Z,19.70
2019-04-06T05:08:56.281Z,18.90
2019-04-06T05:11:26.282Z,17.90
2019-04-06T05:14:32.320Z,17.97
2019-04-06T05:17:01.350Z,18.67
2019-04-06T05:19:30.588Z,19.10
2019-04-06T05:21:59.586Z,18.90
2019-04-06T05:24:28.706Z,19.07
2019-04-06T05:26:57.738Z,18.93
2019-04-06T05:29:26.848Z,18.73
2019-04-06T05:31:56.012Z,19.07
2019-04-06T05:34:24.968Z,19.73
2019-04-06T05:36:54.753Z,19.20
2019-04-06T05:39:25.986Z,18.93
2019-04-06T05:41:54.937Z,18.77
2019-04-06T05:44:24.216Z,19.40
2019-04-06T05:46:53.218Z,19.43
2019-04-06T05:49:22.262Z,18.90
2019-04-06T05:51:51.469Z,18.93
2019-04-06T05:54:20.390Z,20.40
2019-04-06T05:56:49.689Z,19.50
2019-04-06T05:59:18.664Z,20.13
2019-04-06T06:01:48.943Z,20.63
2019-04-06T06:04:18.510Z,19.60
2019-04-06T06:06:47.566Z,20.57
2019-04-06T06:09:16.873Z,20.20
2019-04-06T06:11:45.983Z,21.17
2019-04-06T06:14:17.336Z,20.43
2019-04-06T06:16:46.288Z,19.10
2019-04-06T06:19:15.344Z,20.60
2019-04-06T06:21:44.506Z,20.73
2019-04-06T06:24:13.662Z,20.67
2019-04-06T06:26:42.798Z,20.30
2019-04-06T06:29:12.535Z,23.47
2019-04-06T06:31:41.598Z,28.70
2019-04-06T06:34:10.897Z,31.40
2019-04-06T06:36:39.940Z,24.87
2019-04-06T06:39:09.373Z,22.57
2019-04-06T06:41:38.812Z,23.03
2019-04-06T06:44:07.958Z,22.60
2019-04-06T06:46:37.186Z,22.03
2019-04-06T06:49:06.272Z,21.87
2019-04-06T06:51:35.359Z,21.57
2019-04-06T06:54:07.394Z,21.43
2019-04-06T06:56:36.534Z,22.97
2019-04-06T06:59:05.838Z,21.50
2019-04-06T07:01:34.901Z,23.07
2019-04-06T07:04:04.118Z,21.70
2019-04-06T07:06:33.142Z,23.03
2019-04-06T07:09:02.288Z,22.13
2019-04-06T07:11:31.387Z,22.30
2019-04-06T07:14:00.754Z,22.70
2019-04-06T07:16:30.180Z,22.83
2019-04-06T07:18:59.438Z,22.77
2019-04-06T07:21:28.693Z,23.67
2019-04-06T07:23:57.872Z,23.33
2019-04-06T07:26:27.240Z,21.80
2019-04-06T07:28:56.230Z,22.60
2019-04-06T07:31:45.170Z,23.30
2019-04-06T07:34:14.223Z,24.00
2019-04-06T07:36:43.400Z,23.33
2019-04-06T07:39:12.605Z,27.70
2019-04-06T07:41:41.819Z,27.20
2019-04-06T07:44:11.398Z,26.03
2019-04-06T07:46:40.549Z,25.83
2019-04-06T07:49:10.657Z,25.17
2019-04-06T07:51:40.756Z,24.13
2019-04-06T07:54:09.951Z,25.30
2019-04-06T07:56:39.228Z,24.13
2019-04-06T07:59:08.256Z,24.30
2019-04-06T08:01:38.424Z,24.40
2019-04-06T08:04:07.777Z,23.97
2019-04-06T08:06:39.608Z,22.57
2019-04-06T08:09:11.241Z,21.83
2019-04-06T08:11:40.597Z,22.57
2019-04-06T08:14:09.741Z,23.10
2019-04-06T08:16:38.790Z,22.07
2019-04-06T08:19:07.873Z,21.60
2019-04-06T08:21:36.958Z,22.27
2019-04-06T08:24:06.692Z,27.07
2019-04-06T08:26:36.418Z,29.20
2019-04-06T08:29:06.216Z,24.53
2019-04-06T08:31:35.555Z,23.73
2019-04-06T08:34:04.751Z,25.00
2019-04-06T08:36:34.052Z,25.73
2019-04-06T08:39:05.854Z,26.33
2019-04-06T08:41:36.778Z,25.50
2019-04-06T08:44:06.034Z,24.43
2019-04-06T08:46:36.194Z,24.40
2019-04-06T08:49:05.412Z,23.23
2019-04-06T08:51:54.434Z,24.23
2019-04-06T08:54:23.551Z,24.00
2019-04-06T08:56:53.048Z,32.63
2019-04-06T08:59:22.024Z,26.37
2019-04-06T09:01:51.981Z,24.47
2019-04-06T09:04:20.981Z,23.43
2019-04-06T09:06:50.639Z,31.07
2019-04-06T09:09:19.947Z,28.17
2019-04-06T09:11:49.166Z,26.33
2019-04-06T09:14:18.173Z,27.63
2019-04-06T09:16:47.197Z,27.63
2019-04-06T09:19:16.687Z,26.43
2019-04-06T09:21:45.841Z,24.53
2019-04-06T09:24:14.956Z,26.93
2019-04-06T09:26:44.078Z,23.00
2019-04-06T09:29:22.438Z,23.87
2019-04-06T09:31:43.952Z,25.63
2019-04-06T09:34:13.373Z,23.67
2019-04-06T09:36:42.479Z,24.83
2019-04-06T09:39:11.717Z,23.70
2019-04-06T09:41:40.969Z,26.90
2019-04-06T09:44:16.714Z,24.70
2019-04-06T09:47:03.542Z,22.27
2019-04-06T09:49:51.714Z,21.53
2019-04-06T09:52:30.994Z,21.93
2019-04-06T09:55:19.637Z,28.00
2019-04-06T09:57:58.477Z,25.70
2019-04-06T10:00:41.357Z,24.27
2019-04-06T10:03:37.045Z,34.50
2019-04-06T10:06:25.217Z,22.50
2019-04-06T10:09:14.309Z,23.33
2019-04-06T10:12:03.442Z,23.37
2019-04-06T10:14:45.989Z,21.07
2019-04-06T10:17:56.262Z,22.63
2019-04-06T10:20:38.313Z,26.10
2019-04-06T10:23:38.535Z,25.83
2019-04-06T10:26:15.151Z,35.60
2019-04-06T10:29:03.525Z,23.97
2019-04-06T10:31:51.847Z,24.07
2019-04-06T10:34:39.894Z,20.63
2019-04-06T10:37:28.700Z,17.70
2019-04-06T10:40:08.313Z,20.20
2019-04-06T10:42:56.940Z,20.10
2019-04-06T10:45:33.120Z,20.20
2019-04-06T10:48:22.509Z,18.37
2019-04-06T10:51:20.528Z,17.90
2019-04-06T10:54:10.840Z,18.27
2019-04-06T10:57:01.863Z,18.70
2019-04-06T10:59:45.796Z,19.70
2019-04-06T11:02:32.435Z,27.63
2019-04-06T11:05:12.961Z,22.53
2019-04-06T11:08:10.120Z,19.83
2019-04-06T11:10:57.258Z,18.40
2019-04-06T11:13:47.097Z,18.43
2019-04-06T11:16:39.673Z,17.73
2019-04-06T11:19:37.095Z,17.13
2019-04-06T11:22:25.523Z,17.80
2019-04-06T11:25:07.372Z,17.47
2019-04-06T11:27:50.498Z,16.63
2019-04-06T11:30:37.618Z,18.43
2019-04-06T11:33:39.107Z,19.83
2019-04-06T11:36:19.192Z,20.00
2019-04-06T11:39:09.247Z,17.70
2019-04-06T11:41:55.786Z,17.23
2019-04-06T11:44:52.888Z,16.37
2019-04-06T11:47:36.071Z,17.80
2019-04-06T11:50:24.120Z,18.97
2019-04-06T11:53:08.695Z,17.00
2019-04-06T11:55:47.396Z,16.67
2019-04-06T11:58:50.794Z,16.87
2019-04-06T12:01:47.720Z,17.63
2019-04-06T12:04:31.785Z,17.43
2019-04-06T12:07:10.245Z,18.90
2019-04-06T12:10:00.370Z,16.67
2019-04-06T12:12:41.235Z,22.20
2019-04-06T12:15:22.006Z,20.30
2019-04-06T12:18:17.604Z,18.17
2019-04-06T12:21:14.477Z,20.37
2019-04-06T12:24:01.370Z,18.93
2019-04-06T12:26:48.280Z,18.00
2019-04-06T12:29:31.315Z,20.20
2019-04-06T12:32:19.063Z,33.63
2019-04-06T12:35:03.106Z,21.20
2019-04-06T12:37:41.707Z,18.93
2019-04-06T12:40:22.446Z,17.77
2019-04-06T12:43:05.455Z,19.13
2019-04-06T12:45:51.827Z,16.63
2019-04-06T12:48:37.969Z,18.27
2019-04-06T12:51:32.347Z,18.67
2019-04-06T12:54:13.814Z,17.13
2019-04-06T12:56:55.833Z,19.53
2019-04-06T12:59:41.799Z,17.93
2019-04-06T13:02:18.947Z,17.23
2019-04-06T13:05:00.970Z,17.07
2019-04-06T13:07:42.074Z,16.77
2019-04-06T13:10:20.640Z,16.20
2019-04-06T13:13:17.066Z,15.97
2019-04-06T13:15:54.169Z,15.50
2019-04-06T13:18:37.453Z,17.00
2019-04-06T13:21:13.656Z,17.00
2019-04-06T13:24:05.848Z,16.90
2019-04-06T13:26:45.022Z,17.00
2019-04-06T13:29:20.783Z,18.07
2019-04-06T13:32:12.064Z,17.83
2019-04-06T13:35:04.150Z,15.90
2019-04-06T13:37:49.615Z,16.30
2019-04-06T13:40:53.096Z,16.10
2019-04-06T13:43:41.393Z,14.87
2019-04-06T13:46:23.802Z,16.23
2019-04-06T13:49:12.270Z,14.57
2019-04-06T13:52:09.646Z,15.37
2019-04-06T13:55:06.912Z,13.83
2019-04-06T13:58:00.873Z,13.73
2019-04-06T14:00:58.408Z,13.30
2019-04-06T14:03:46.894Z,14.70
2019-04-06T14:06:42.312Z,15.83
2019-04-06T14:09:31.007Z,14.00
2019-04-06T14:12:18.503Z,13.60
2019-04-06T14:14:58.070Z,12.70
2019-04-06T14:17:49.419Z,12.93
2019-04-06T14:20:29.571Z,13.80
2019-04-06T14:23:07.015Z,13.43
2019-04-06T14:25:55.676Z,12.83
2019-04-06T14:28:35.601Z,12.00
2019-04-06T14:31:27.267Z,14.73
2019-04-06T14:34:07.499Z,13.70
2019-04-06T14:36:48.903Z,12.07
2019-04-06T14:39:35.503Z,10.80
2019-04-06T14:42:26.773Z,10.93
2019-04-06T14:45:21.123Z,10.60
2019-04-06T14:48:11.262Z,10.90
2019-04-06T14:50:50.734Z,12.17
2019-04-06T14:53:46.873Z,12.03
2019-04-06T14:56:26.503Z,11.10
2019-04-06T14:59:13.510Z,10.87
2019-04-06T15:02:00.144Z,11.17
2019-04-06T15:04:42.316Z,11.17
2019-04-06T15:07:29.149Z,15.03
2019-04-06T15:10:16.193Z,14.07
2019-04-06T15:12:56.897Z,13.13
2019-04-06T15:15:45.010Z,11.70
2019-04-06T15:18:39.859Z,12.67
2019-04-06T15:21:29.029Z,12.07
2019-04-06T15:24:07.628Z,13.73
2019-04-06T15:27:06.946Z,13.10
2019-04-06T15:29:45.289Z,12.27
2019-04-06T15:32:42.347Z,12.27
2019-04-06T15:35:19.624Z,12.00
2019-04-06T15:38:06.891Z,11.80
2019-04-06T15:40:44.424Z,11.80
2019-04-06T15:43:20.264Z,11.20
2019-04-06T15:45:57.093Z,11.47
2019-04-06T15:48:49.708Z,13.83
2019-04-06T15:51:41.824Z,11.47
2019-04-06T15:54:52.588Z,10.07
2019-04-06T15:57:33.248Z,10.17
2019-04-06T16:00:27.449Z,11.17
2019-04-06T16:03:30.816Z,10.90
2019-04-06T16:06:27.497Z,11.20
2019-04-06T16:09:07.520Z,11.47
2019-04-06T16:12:06.269Z,12.40
2019-04-06T16:14:45.313Z,12.87
2019-04-06T16:17:36.478Z,12.43
2019-04-06T16:20:32.689Z,16.77
2019-04-06T16:23:21.212Z,16.93
2019-04-06T16:26:18.382Z,13.63
2019-04-06T16:29:13.208Z,12.60
2019-04-06T16:32:19.114Z,12.00
2019-04-06T16:34:58.056Z,15.10
2019-04-06T16:37:44.882Z,13.27
2019-04-06T16:40:29.129Z,14.20
2019-04-06T16:43:25.553Z,14.73
2019-04-06T16:46:11.339Z,13.43
2019-04-06T16:48:46.730Z,13.63
2019-04-06T16:51:24.294Z,13.93
2019-04-06T16:54:03.116Z,13.77
2019-04-06T16:57:03.310Z,15.40
2019-04-06T16:59:47.535Z,20.40
2019-04-06T17:02:42.121Z,24.90
2019-04-06T17:05:21.406Z,23.50
2019-04-06T17:08:13.976Z,17.40
2019-04-06T17:11:15.179Z,14.93
2019-04-06T17:14:01.759Z,14.20
2019-04-06T17:17:03.624Z,15.30
2019-04-06T17:19:52.879Z,15.43
2019-04-06T17:22:43.756Z,16.53
2019-04-06T17:25:24.486Z,16.00
2019-04-06T17:28:11.435Z,16.03
2019-04-06T17:30:51.956Z,17.27
2019-04-06T17:33:40.470Z,16.03
2019-04-06T17:36:28.999Z,15.07
2019-04-06T17:39:15.860Z,13.97
2019-04-06T17:42:03.951Z,13.60
2019-04-06T17:44:48.027Z,13.90
2019-04-06T17:47:37.755Z,14.17
2019-04-06T17:50:32.136Z,14.43
2019-04-06T17:53:19.167Z,15.70
2019-04-06T17:56:10.868Z,15.10
2019-04-06T17:59:08.137Z,15.57
2019-04-06T18:01:57.293Z,15.53
2019-04-06T18:04:59.030Z,14.90
2019-04-06T18:07:40.152Z,13.87
2019-04-06T18:10:20.060Z,14.27
2019-04-06T18:12:56.495Z,16.03
2019-04-06T18:15:26.022Z,14.37
2019-04-06T18:17:55.120Z,14.53
2019-04-06T18:20:26.281Z,14.53
2019-04-06T18:22:55.668Z,14.20
2019-04-06T18:25:26.825Z,15.10
2019-04-06T18:27:56.229Z,16.67
2019-04-06T18:30:25.958Z,16.07
2019-04-06T18:33:04.982Z,14.67
2019-04-06T18:35:34.352Z,14.50
2019-04-06T18:38:28.884Z,14.50
2019-04-06T18:40:58.145Z,16.67
2019-04-06T18:43:27.361Z,13.90
2019-04-06T18:45:58.172Z,12.60
2019-04-06T18:48:27.498Z,13.40
2019-04-06T18:50:56.784Z,13.53
2019-04-06T18:53:26.333Z,13.47
2019-04-06T18:55:56.054Z,13.40
2019-04-06T18:58:25.197Z,13.67
2019-04-06T19:00:55.034Z,13.57
2019-04-06T19:03:24.354Z,13.23
2019-04-06T19:05:59.044Z,13.97
2019-04-06T19:08:28.704Z,13.47
2019-04-06T19:10:58.956Z,14.27
2019-04-06T19:13:28.607Z,14.13
2019-04-06T19:15:59.008Z,14.17
2019-04-06T19:18:28.444Z,14.23
2019-04-06T19:20:58.082Z,14.80
2019-04-06T19:23:27.732Z,15.87
2019-04-06T19:26:01.939Z,13.37
2019-04-06T19:28:31.248Z,14.50
2019-04-06T19:31:00.844Z,15.47
2019-04-06T19:33:30.534Z,14.73
2019-04-06T19:35:59.917Z,14.73
2019-04-06T19:38:29.293Z,15.10
2019-04-06T19:40:58.623Z,13.70
2019-04-06T19:43:28.465Z,14.80
2019-04-06T19:45:58.864Z,14.90
2019-04-06T19:48:28.453Z,15.73
2019-04-06T19:50:57.890Z,14.10
2019-04-06T19:53:27.743Z,13.97
2019-04-06T19:55:57.418Z,13.93
2019-04-06T19:58:27.053Z,14.83
2019-04-06T20:00:56.650Z,13.87
2019-04-06T20:03:35.499Z,14.23
2019-04-06T20:05:57.474Z,13.73
2019-04-06T20:08:27.126Z,13.77
2019-04-06T20:10:56.322Z,12.97
2019-04-06T20:13:28.157Z,12.60
2019-04-06T20:15:56.446Z,13.47
2019-04-06T20:18:26.198Z,15.57
2019-04-06T20:20:55.363Z,14.37
2019-04-06T20:23:32.278Z,13.30
2019-04-06T20:26:01.654Z,13.33
2019-04-06T20:28:31.029Z,13.80
2019-04-06T20:31:00.306Z,18.07
2019-04-06T20:33:29.567Z,18.30
2019-04-06T20:35:58.739Z,15.13
2019-04-06T20:38:27.884Z,19.27
2019-04-06T20:40:57.865Z,18.30
2019-04-06T20:43:29.454Z,15.43
2019-04-06T20:45:59.461Z,15.40
2019-04-06T20:48:32.414Z,14.57
2019-04-06T20:51:01.647Z,13.60
2019-04-06T20:53:30.869Z,15.17
2019-04-06T20:56:00.665Z,14.47
2019-04-06T20:58:30.125Z,16.13
2019-04-06T21:00:59.521Z,14.27
2019-04-06T21:03:28.462Z,14.70
2019-04-06T21:05:57.405Z,15.07
2019-04-06T21:08:26.502Z,14.20
2019-04-06T21:10:55.707Z,13.57
2019-04-06T21:13:25.110Z,14.47
2019-04-06T21:15:54.361Z,12.73
2019-04-06T21:18:23.594Z,13.10
2019-04-06T21:20:53.333Z,13.67
2019-04-06T21:23:22.833Z,13.57
2019-04-06T21:25:52.083Z,13.43
2019-04-06T21:28:21.160Z,18.20
2019-04-06T21:30:50.202Z,15.63
2019-04-06T21:33:19.776Z,14.20
2019-04-06T21:35:49.151Z,14.50
2019-04-06T21:38:18.292Z,15.30
2019-04-06T21:40:47.963Z,14.97
2019-04-06T21:43:17.435Z,16.40
2019-04-06T21:45:46.814Z,15.97
2019-04-06T21:48:16.160Z,17.90
2019-04-06T21:50:45.422Z,15.17
2019-04-06T21:53:22.286Z,15.47
2019-04-06T21:56:00.946Z,14.47
2019-04-06T21:58:22.311Z,15.20
2019-04-06T22:00:53.675Z,14.23
2019-04-06T22:03:23.358Z,15.47
2019-04-06T22:05:53.187Z,15.13
2019-04-06T22:08:23.267Z,14.93
2019-04-06T22:10:52.792Z,14.50
2019-04-06T22:13:22.744Z,14.63
2019-04-06T22:15:51.911Z,15.83
2019-04-06T22:18:23.546Z,17.17
2019-04-06T22:20:53.346Z,26.47
2019-04-06T22:23:22.695Z,19.47
2019-04-06T22:25:52.103Z,15.23
2019-04-06T22:28:21.949Z,15.97
2019-04-06T22:30:51.847Z,14.20
2019-04-06T22:33:21.731Z,15.07
2019-04-06T22:35:54.197Z,13.83
2019-04-06T22:38:25.592Z,14.67
2019-04-06T22:40:55.543Z,13.43
2019-04-06T22:43:28.290Z,14.27
2019-04-06T22:45:57.593Z,14.70
2019-04-06T22:48:26.897Z,14.10
2019-04-06T22:50:55.894Z,13.30
2019-04-06T22:53:24.906Z,13.07
2019-04-06T22:55:53.999Z,13.57
2019-04-06T22:58:25.415Z,13.67
2019-04-06T23:01:01.325Z,13.33
2019-04-06T23:03:47.835Z,13.10
2019-04-06T23:06:21.961Z,13.77
2019-04-06T23:08:51.302Z,13.83
2019-04-06T23:11:20.745Z,13.73
2019-04-06T23:13:50.325Z,13.10
2019-04-06T23:16:19.274Z,14.27
2019-04-06T23:18:48.396Z,13.93
2019-04-06T23:21:17.477Z,13.50
2019-04-06T23:23:46.673Z,13.07
2019-04-06T23:26:15.804Z,14.17
2019-04-06T23:28:44.978Z,14.30
2019-04-06T23:31:14.736Z,13.37
2019-04-06T23:33:43.819Z,22.13
2019-04-06T23:36:13.435Z,24.50
2019-04-06T23:38:43.026Z,15.30
2019-04-06T23:41:12.201Z,15.10
2019-04-06T23:43:41.541Z,14.20
2019-04-06T23:46:10.817Z,13.67
2019-04-06T23:48:40.718Z,13.27
2019-04-06T23:51:09.749Z,12.90
2019-04-06T23:53:38.803Z,14.07
2019-04-06T23:56:08.046Z,13.90
2019-04-06T23:58:38.011Z,12.87
